Time;durP1;ratioP1;P1;durP2;ratioP2;P2;SDS_P1;SDS_P2;PMS_P1;PMS_P2;Temp;Humidity;BMP_temperature;BMP_pressure;BME280_temperature;BME280_humidity;BME280_pressure;Samples;Min_cycle;Max_cycle;Signal;HPM_P1;HPM_P2
2023/04/03 00:01:20;;;;;;;;;;;;;;;18.17;61.26;102328.30;2233803;79;51543;-73
2023/04/03 00:04:21;;;;;;;;;;;;;;;18.15;61.40;102329.42;2262595;78;50408;-73
2023/04/03 00:07:23;;;;;;;;;;;;;;;18.10;61.88;102324.47;2258039;78;50739;-73
2023/04/03 00:10:24;;;;;;;;;;;;;;;18.06;62.03;102329.27;2233217;78;52353;-74
2023/04/03 00:13:26;;;;;;;;;;;;;;;18.08;61.65;102330.45;2257833;78;50837;-75
2023/04/03 00:16:28;;;;;;;;;;;;;;;18.13;61.43;102330.05;2257789;78;51542;-76
2023/04/03 00:19:30;;;;;;;;;;;;;;;18.19;61.09;102329.51;2278983;78;50412;-75
2023/04/03 00:22:31;;;;;;;;;;;;;;;18.26;60.82;102330.62;2233064;78;51760;-75
2023/04/03 00:25:33;;;;;;;;;;;;;;;18.34;60.62;102336.62;2257866;78;50648;-74
2023/04/03 00:28:34;;;;;;;;;;;;;;;18.34;60.53;102333.94;2279099;78;51591;-75
2023/04/03 00:31:36;;;;;;;;;;;;;;;18.33;60.46;102331.76;2258206;78;50663;-76
2023/04/03 00:34:38;;;;;;;;;;;;;;;18.30;60.48;102337.41;2236041;78;52731;-77
2023/04/03 00:37:40;;;;;;;;;;;;;;;18.28;60.53;102338.87;2258287;78;51555;-76
2023/04/03 00:40:45;;;;;;;;;;;;;;;18.26;60.76;102338.66;2279184;78;50777;-76
2023/04/03 00:43:46;;;;;;;;;;;;;;;18.25;60.79;102342.33;2278813;78;51014;-75
2023/04/03 00:46:48;;;;;;;;;;;;;;;18.20;60.96;102340.56;2233320;78;50108;-76
2023/04/03 00:49:50;;;;;;;;;;;;;;;18.16;61.69;102335.12;2269072;78;51538;-76
2023/04/03 00:52:51;;;;;;;;;;;;;;;18.12;61.46;102340.42;2241745;79;50756;-76
2023/04/03 00:55:53;;;;;;;;;;;;;;;18.14;61.20;102332.59;2241467;79;50444;-77
2023/04/03 00:58:56;;;;;;;;;;;;;;;18.21;60.73;102333.74;2221352;79;52548;-77
2023/04/03 01:01:58;;;;;;;;;;;;;;;18.24;60.59;102337.48;2254996;78;51654;-77
2023/04/03 01:05:00;;;;;;;;;;;;;;;18.24;60.53;102339.31;2256341;78;50423;-76
2023/04/03 01:08:01;;;;;;;;;;;;;;;18.23;60.68;102336.27;2213482;79;50150;-76
2023/04/03 01:11:03;;;;;;;;;;;;;;;18.21;60.77;102340.44;2213172;79;50149;-75
2023/04/03 01:14:06;;;;;;;;;;;;;;;18.19;61.03;102341.06;2233550;79;52312;-76
2023/04/03 01:17:25;;;;;;;;;;;;;;;18.16;61.01;102340.48;2233804;79;50409;-76
2023/04/03 01:20:35;;;;;;;;;;;;;;;18.13;61.22;102336.24;2233777;79;50189;-76
2023/04/03 01:23:38;;;;;;;;;;;;;;;18.06;61.88;102338.65;2213253;79;51042;-76
2023/04/03 01:26:40;;;;;;;;;;;;;;;18.03;61.82;102343.41;2233484;78;51486;-75
2023/04/03 01:29:43;;;;;;;;;;;;;;;18.07;61.57;102339.48;2233846;79;51640;-76
2023/04/03 01:32:44;;;;;;;;;;;;;;;18.13;61.30;102342.94;2254707;78;50347;-76
2023/04/03 01:35:46;;;;;;;;;;;;;;;18.21;61.01;102337.77;2223379;78;51653;-76
2023/04/03 01:38:48;;;;;;;;;;;;;;;18.29;60.80;102341.08;2213691;79;51887;-77
2023/04/03 01:41:49;;;;;;;;;;;;;;;18.36;60.54;102346.71;2213557;79;51508;-76
2023/04/03 01:44:51;;;;;;;;;;;;;;;18.37;60.39;102352.41;2213125;79;50083;-75
2023/04/03 01:47:53;;;;;;;;;;;;;;;18.35;60.41;102350.39;2189558;79;51219;-75
2023/04/03 01:50:54;;;;;;;;;;;;;;;18.33;60.42;102355.87;2233644;79;50293;-76
2023/04/03 01:53:56;;;;;;;;;;;;;;;18.32;60.53;102355.53;2233559;79;50426;-76
2023/04/03 01:56:57;;;;;;;;;;;;;;;18.30;60.80;102357.50;2213316;79;51474;-75
2023/04/03 01:59:59;;;;;;;;;;;;;;;18.27;60.82;102359.13;2189605;79;49596;-75
2023/04/03 02:03:01;;;;;;;;;;;;;;;18.24;61.21;102359.41;2255259;78;50384;-76
2023/04/03 02:06:02;;;;;;;;;;;;;;;18.18;61.53;102357.27;2273212;78;50413;-76
2023/04/03 02:09:04;;;;;;;;;;;;;;;18.15;61.79;102365.59;2258447;78;50489;-75
2023/04/03 02:12:06;;;;;;;;;;;;;;;18.16;61.57;102361.91;2233824;78;50473;-75
2023/04/03 02:15:07;;;;;;;;;;;;;;;18.25;61.29;102370.47;2279679;78;51558;-75
2023/04/03 02:18:09;;;;;;;;;;;;;;;18.27;61.14;102362.64;2259305;78;51433;-75
2023/04/03 02:21:10;;;;;;;;;;;;;;;18.29;61.13;102359.84;2279100;78;51528;-76
2023/04/03 02:24:12;;;;;;;;;;;;;;;18.25;61.25;102360.59;2233439;78;52407;-76
2023/04/03 02:27:14;;;;;;;;;;;;;;;18.23;61.30;102364.39;2279193;77;50258;-76
2023/04/03 02:30:16;;;;;;;;;;;;;;;18.20;61.37;102360.66;2279172;78;51621;-76
2023/04/03 02:33:17;;;;;;;;;;;;;;;18.16;61.55;102362.78;2243325;78;51497;-75
2023/04/03 02:36:19;;;;;;;;;;;;;;;18.14;61.75;102366.58;2235484;78;51450;-76
2023/04/03 02:39:21;;;;;;;;;;;;;;;18.07;62.09;102370.30;2189618;79;51501;-76
2023/04/03 02:42:22;;;;;;;;;;;;;;;18.10;62.13;102370.52;2233868;79;51570;-76
2023/04/03 02:45:24;;;;;;;;;;;;;;;18.09;61.99;102378.20;2233715;79;51532;-75
2023/04/03 02:48:26;;;;;;;;;;;;;;;18.12;61.80;102380.61;2220359;78;51519;-76
2023/04/03 02:51:27;;;;;;;;;;;;;;;18.17;61.59;102390.41;2211976;79;49519;-76
2023/04/03 02:54:30;;;;;;;;;;;;;;;18.25;61.39;102397.27;2241596;79;50351;-75
2023/04/03 02:57:32;;;;;;;;;;;;;;;18.32;61.16;102393.05;2221551;79;50816;-76
2023/04/03 03:00:33;;;;;;;;;;;;;;;18.34;60.92;102396.45;2241803;79;50742;-76
2023/04/03 03:03:35;;;;;;;;;;;;;;;18.33;60.88;102401.93;2211877;78;50097;-75
2023/04/03 03:06:36;;;;;;;;;;;;;;;18.32;60.87;102395.73;2278909;78;51352;-76
2023/04/03 03:09:38;;;;;;;;;;;;;;;18.30;60.99;102403.05;2279018;77;51531;-76
2023/04/03 03:12:40;;;;;;;;;;;;;;;18.28;61.04;102407.70;2279069;78;50700;-75
2023/04/03 03:15:41;;;;;;;;;;;;;;;18.26;61.24;102404.30;2257673;78;50773;-75
2023/04/03 03:18:43;;;;;;;;;;;;;;;18.22;61.36;102399.73;2279144;77;51667;-77
2023/04/03 03:21:45;;;;;;;;;;;;;;;18.18;61.62;102402.31;2279020;78;51495;-76
2023/04/03 03:24:46;;;;;;;;;;;;;;;18.13;61.93;102406.39;2278765;78;51441;-74
2023/04/03 03:27:48;;;;;;;;;;;;;;;18.12;61.82;102410.07;2257630;78;51038;-77
2023/04/03 03:30:49;;;;;;;;;;;;;;;18.18;61.54;102409.52;2257710;78;50285;-76
2023/04/03 03:33:51;;;;;;;;;;;;;;;18.22;61.33;102411.78;2264417;78;50406;-76
2023/04/03 03:36:52;;;;;;;;;;;;;;;18.25;61.27;102413.34;2257961;78;50766;-76
2023/04/03 03:39:54;;;;;;;;;;;;;;;18.22;61.34;102415.80;2279145;78;50648;-77
2023/04/03 03:42:56;;;;;;;;;;;;;;;18.19;61.45;102411.22;2258027;78;50461;-75
2023/04/03 03:45:57;;;;;;;;;;;;;;;18.18;61.57;102416.20;2278872;78;50747;-77
2023/04/03 03:48:59;;;;;;;;;;;;;;;18.16;61.77;102411.47;2258314;78;51711;-75
2023/04/03 03:52:00;;;;;;;;;;;;;;;18.11;61.90;102417.73;2234047;78;51225;-77
2023/04/03 03:55:02;;;;;;;;;;;;;;;18.06;62.03;102413.66;2279038;78;50650;-76
2023/04/03 03:58:04;;;;;;;;;;;;;;;18.02;62.35;102412.72;2279266;78;51557;-78
2023/04/03 04:01:06;;;;;;;;;;;;;;;18.01;62.17;102407.02;2279238;77;50380;-75
2023/04/03 04:04:08;;;;;;;;;;;;;;;18.05;61.93;102411.94;2239265;78;50166;-75
2023/04/03 04:07:09;;;;;;;;;;;;;;;18.12;61.76;102415.43;2279374;78;51529;-77
2023/04/03 04:10:11;;;;;;;;;;;;;;;18.18;61.56;102413.03;2279338;78;51560;-76
2023/04/03 04:13:12;;;;;;;;;;;;;;;18.26;61.50;102418.58;2279185;78;51540;-77
2023/04/03 04:16:14;;;;;;;;;;;;;;;18.32;61.39;102405.61;2257738;78;51035;-75
2023/04/03 04:19:16;;;;;;;;;;;;;;;18.31;61.25;102419.48;2279065;78;51619;-75
2023/04/03 04:22:17;;;;;;;;;;;;;;;18.31;61.14;102420.81;2279384;77;51284;-76
2023/04/03 04:25:19;;;;;;;;;;;;;;;18.31;61.16;102419.48;2279124;78;50686;-76
2023/04/03 04:28:20;;;;;;;;;;;;;;;18.29;61.22;102420.13;2233278;78;49592;-75
2023/04/03 04:31:22;;;;;;;;;;;;;;;18.29;61.33;102424.16;2258024;78;50108;-77
2023/04/03 04:34:23;;;;;;;;;;;;;;;18.24;61.36;102419.20;2261066;77;50404;-74
2023/04/03 04:37:25;;;;;;;;;;;;;;;18.22;61.44;102418.98;2259047;78;50575;-75
2023/04/03 04:40:27;;;;;;;;;;;;;;;18.14;61.74;102422.84;2234811;78;50125;-75
2023/04/03 04:43:28;;;;;;;;;;;;;;;18.11;61.66;102421.75;2279967;78;50735;-74
2023/04/03 04:46:30;;;;;;;;;;;;;;;18.15;61.05;102424.53;2280164;78;51564;-73
2023/04/03 04:49:31;;;;;;;;;;;;;;;18.24;60.57;102433.94;2258893;78;53430;-74
2023/04/03 04:52:33;;;;;;;;;;;;;;;18.30;60.85;102431.69;2284383;77;52431;-73
2023/04/03 04:55:35;;;;;;;;;;;;;;;18.30;61.04;102439.23;2280109;78;51535;-73
2023/04/03 04:58:36;;;;;;;;;;;;;;;18.27;61.09;102442.20;2280402;78;52300;-76
2023/04/03 05:01:38;;;;;;;;;;;;;;;18.21;61.27;102444.94;2256672;78;51545;-73
2023/04/03 05:04:39;;;;;;;;;;;;;;;18.21;61.21;102446.27;2249445;78;51413;-73
2023/04/03 05:07:41;;;;;;;;;;;;;;;18.19;61.24;102444.72;2259265;78;50537;-73
2023/04/03 05:10:42;;;;;;;;;;;;;;;18.18;61.27;102448.36;2280261;78;50523;-73
2023/04/03 05:13:44;;;;;;;;;;;;;;;18.08;61.80;102440.78;2258848;78;51731;-75
2023/04/03 05:16:46;;;;;;;;;;;;;;;18.09;61.65;102454.55;2258859;78;51176;-75
2023/04/03 05:19:48;;;;;;;;;;;;;;;18.16;61.22;102450.32;2280388;78;51517;-75
2023/04/03 05:22:49;;;;;;;;;;;;;;;18.30;60.82;102452.63;2280375;78;50354;-76
2023/04/03 05:25:51;;;;;;;;;;;;;;;18.38;60.52;102460.83;2280043;78;49987;-74
2023/04/03 05:28:52;;;;;;;;;;;;;;;18.45;60.43;102455.78;2234285;78;51661;-75
2023/04/03 05:31:54;;;;;;;;;;;;;;;18.47;60.20;102458.67;2274237;78;50804;-75
2023/04/03 05:34:55;;;;;;;;;;;;;;;18.46;60.07;102458.30;2273470;78;50299;-75
2023/04/03 05:37:57;;;;;;;;;;;;;;;18.46;59.96;102459.64;2259134;78;50827;-75
2023/04/03 05:40:59;;;;;;;;;;;;;;;18.47;59.85;102469.39;2259198;78;52564;-74
2023/04/03 05:44:00;;;;;;;;;;;;;;;18.56;59.59;102479.77;2280355;78;50330;-74
2023/04/03 05:47:02;;;;;;;;;;;;;;;18.57;59.52;102471.23;2280497;78;50754;-75
2023/04/03 05:50:04;;;;;;;;;;;;;;;18.63;59.35;102479.58;2280594;78;50327;-75
2023/04/03 05:53:05;;;;;;;;;;;;;;;18.63;59.47;102477.39;2259232;78;51182;-75
2023/04/03 05:56:07;;;;;;;;;;;;;;;18.63;59.60;102487.63;2280218;78;50303;-75
2023/04/03 05:59:09;;;;;;;;;;;;;;;18.71;59.59;102485.59;2259549;78;50336;-75
2023/04/03 06:02:11;;;;;;;;;;;;;;;18.71;59.83;102486.42;2249233;78;50375;-73
2023/04/03 06:05:14;;;;;;;;;;;;;;;18.72;59.74;102488.61;2245365;78;52559;-73
2023/04/03 06:08:15;;;;;;;;;;;;;;;18.76;59.91;102485.21;2256003;78;50388;-74
2023/04/03 06:11:17;;;;;;;;;;;;;;;18.74;59.95;102492.01;2258237;78;50457;-73
2023/04/03 06:14:19;;;;;;;;;;;;;;;18.75;60.05;102493.72;2257573;78;50162;-74
2023/04/03 06:17:20;;;;;;;;;;;;;;;18.76;60.12;102495.94;2233724;78;50143;-73
2023/04/03 06:20:22;;;;;;;;;;;;;;;18.79;60.00;102495.16;2258168;78;51368;-73
2023/04/03 06:23:24;;;;;;;;;;;;;;;18.75;60.18;102495.06;2257981;78;51481;-73
2023/04/03 06:26:26;;;;;;;;;;;;;;;18.72;60.21;102506.04;2278934;77;50713;-73
2023/04/03 06:29:27;;;;;;;;;;;;;;;18.74;59.96;102503.23;2233898;78;52576;-73
2023/04/03 06:32:29;;;;;;;;;;;;;;;18.69;59.80;102502.30;2279284;78;50255;-73
2023/04/03 06:35:30;;;;;;;;;;;;;;;18.69;59.71;102502.30;2266575;78;50094;-73
2023/04/03 06:38:33;;;;;;;;;;;;;;;18.71;59.43;102504.36;2258285;78;51952;-73
2023/04/03 06:41:34;;;;;;;;;;;;;;;18.72;59.26;102504.20;2280134;77;51662;-73
2023/04/03 06:44:36;;;;;;;;;;;;;;;18.74;59.22;102509.94;2260670;78;50875;-73
2023/04/03 06:47:37;;;;;;;;;;;;;;;18.74;59.03;102510.78;2281086;77;50752;-73
2023/04/03 06:50:39;;;;;;;;;;;;;;;18.71;58.94;102513.25;2259882;78;51570;-73
2023/04/03 06:53:41;;;;;;;;;;;;;;;18.71;58.92;102513.75;2236409;78;51186;-73
2023/04/03 06:56:43;;;;;;;;;;;;;;;18.67;59.07;102517.17;2282812;77;51524;-72
2023/04/03 06:59:44;;;;;;;;;;;;;;;18.70;59.01;102521.41;2260665;78;50649;-71
2023/04/03 07:02:46;;;;;;;;;;;;;;;18.70;59.02;102521.41;2280304;77;50723;-72
2023/04/03 07:05:48;;;;;;;;;;;;;;;18.74;59.08;102530.89;2234154;78;50143;-72
2023/04/03 07:08:50;;;;;;;;;;;;;;;18.76;59.40;102526.28;2245195;78;51520;-72
2023/04/03 07:11:51;;;;;;;;;;;;;;;18.84;59.02;102538.49;2217311;79;50768;-71
2023/04/03 07:14:53;;;;;;;;;;;;;;;18.81;58.88;102538.78;2234399;79;50790;-71
2023/04/03 07:17:55;;;;;;;;;;;;;;;18.81;58.97;102526.71;2189963;79;49687;-71
2023/04/03 07:20:56;;;;;;;;;;;;;;;18.84;58.88;102545.20;2234015;79;50372;-74
2023/04/03 07:23:58;;;;;;;;;;;;;;;18.84;58.85;102542.52;2233874;79;50681;-74
2023/04/03 07:27:00;;;;;;;;;;;;;;;18.79;58.85;102542.09;2213379;79;50161;-73
2023/04/03 07:30:01;;;;;;;;;;;;;;;18.80;58.78;102541.59;2213396;79;51179;-75
2023/04/03 07:33:03;;;;;;;;;;;;;;;18.78;58.81;102551.13;2233704;79;50253;-74
2023/04/03 07:36:06;;;;;;;;;;;;;;;18.76;58.78;102553.09;2228565;78;50403;-73
2023/04/03 07:39:08;;;;;;;;;;;;;;;18.68;58.89;102544.86;2279202;78;50375;-75
2023/04/03 07:42:09;;;;;;;;;;;;;;;18.67;58.74;102552.03;2257645;78;51022;-73
2023/04/03 07:45:11;;;;;;;;;;;;;;;18.58;58.78;102547.52;2257758;78;51559;-74
2023/04/03 07:48:13;;;;;;;;;;;;;;;18.58;58.74;102557.39;2279291;78;50725;-73
2023/04/03 07:51:14;;;;;;;;;;;;;;;18.53;58.59;102555.61;2279061;78;50434;-75
2023/04/03 07:54:16;;;;;;;;;;;;;;;18.50;58.72;102558.08;2233143;78;49491;-74
2023/04/03 07:57:18;;;;;;;;;;;;;;;18.46;58.75;102561.50;2278954;78;50408;-73
2023/04/03 08:00:19;;;;;;;;;;;;;;;18.42;59.08;102564.11;2278908;78;50697;-75
2023/04/03 08:03:22;;;;;;;;;;;;;;;18.33;59.26;102550.66;2278943;78;51477;-73
2023/04/03 08:06:23;;;;;;;;;;;;;;;18.39;59.33;102552.30;2257011;78;50285;-74
2023/04/03 08:09:25;;;;;;;;;;;;;;;18.39;59.30;102556.31;2233825;78;51588;-74
2023/04/03 08:12:28;;;;;;;;;;;;;;;18.37;59.42;102562.33;2213088;79;50752;-73
2023/04/03 08:15:30;;;;;;;;;;;;;;;18.40;59.31;102555.84;2233453;79;51562;-74
2023/04/03 08:18:32;;;;;;;;;;;;;;;18.38;59.31;102561.83;2213120;79;49666;-74
2023/04/03 08:21:33;;;;;;;;;;;;;;;18.36;59.20;102560.61;2233691;79;50660;-73
2023/04/03 08:24:35;;;;;;;;;;;;;;;18.34;59.26;102564.41;2233421;79;50363;-74
2023/04/03 08:27:37;;;;;;;;;;;;;;;18.34;59.16;102568.43;2233617;79;50679;-74
2023/04/03 08:30:42;;;;;;;;;;;;;;;18.30;59.16;102557.64;2189623;79;51420;-73
2023/04/03 08:33:43;;;;;;;;;;;;;;;18.26;59.25;102552.55;2233463;79;50361;-74
2023/04/03 08:36:45;;;;;;;;;;;;;;;18.23;59.21;102568.03;2264190;78;50409;-73
2023/04/03 08:39:47;;;;;;;;;;;;;;;18.19;59.39;102551.39;2233683;79;51559;-73
2023/04/03 08:42:50;;;;;;;;;;;;;;;18.16;59.35;102552.13;2213094;79;51658;-73
2023/04/03 08:45:53;;;;;;;;;;;;;;;18.17;59.21;102548.48;2233540;79;50935;-73
2023/04/03 08:48:54;;;;;;;;;;;;;;;18.15;58.66;102551.78;2233747;79;50298;-74
2023/04/03 08:51:56;;;;;;;;;;;;;;;18.24;58.13;102546.98;2233874;79;50462;-73
2023/04/03 08:54:58;;;;;;;;;;;;;;;18.27;57.88;102548.04;2213288;79;50710;-74
2023/04/03 08:58:01;;;;;;;;;;;;;;;18.35;57.54;102552.72;2233917;79;51637;-74
2023/04/03 09:01:07;;;;;;;;;;;;;;;18.34;57.50;102556.37;2233804;79;50804;-74
2023/04/03 09:04:13;;;;;;;;;;;;;;;18.29;57.69;102550.10;2233547;79;51559;-74
2023/04/03 09:07:16;;;;;;;;;;;;;;;18.26;57.72;102553.90;2242425;78;52484;-74
2023/04/03 09:10:20;;;;;;;;;;;;;;;18.20;57.89;102550.89;2279094;78;51574;-74
2023/04/03 09:13:26;;;;;;;;;;;;;;;18.14;58.35;102556.30;2279021;78;51559;-73
2023/04/03 09:16:32;;;;;;;;;;;;;;;18.14;58.52;102546.08;2257736;78;52724;-73
2023/04/03 09:19:51;;;;;;;;;;;;;;;18.10;58.60;102550.00;2257788;78;49674;-73
2023/04/03 09:22:53;;;;;;;;;;;;;;;18.08;58.18;102550.61;2279354;78;50915;-73
2023/04/03 09:25:57;;;;;;;;;;;;;;;18.17;57.70;102552.01;2278854;78;50422;-73
2023/04/03 09:29:00;;;;;;;;;;;;;;;18.30;57.25;102554.46;2279224;78;50680;-74
2023/04/03 09:32:02;;;;;;;;;;;;;;;18.33;57.07;102550.17;2258323;78;49612;-73
2023/04/03 09:35:04;;;;;;;;;;;;;;;18.37;56.90;102554.29;2271107;77;51402;-73
2023/04/03 09:38:10;;;;;;;;;;;;;;;18.36;56.92;102552.57;2275094;78;52447;-73
2023/04/03 09:41:17;;;;;;;;;;;;;;;18.36;56.87;102549.05;2279151;78;50111;-73
2023/04/03 09:44:20;;;;;;;;;;;;;;;18.34;56.95;102552.34;2233216;78;51548;-73
2023/04/03 09:47:25;;;;;;;;;;;;;;;18.31;57.13;102552.63;2279065;78;51416;-73
2023/04/03 09:50:27;;;;;;;;;;;;;;;18.30;57.12;102547.77;2279027;78;50689;-74
2023/04/03 09:53:39;;;;;;;;;;;;;;;18.22;57.39;102540.89;2279086;77;51572;-73
2023/04/03 09:56:40;;;;;;;;;;;;;;;18.15;57.68;102545.92;2278902;78;50690;-74
2023/04/03 09:59:43;;;;;;;;;;;;;;;18.20;57.22;102546.88;2279249;78;51605;-73
2023/04/03 10:02:45;;;;;;;;;;;;;;;18.24;57.00;102548.31;2279157;78;50267;-73
2023/04/03 10:05:47;;;;;;;;;;;;;;;18.27;56.93;102534.64;2245364;78;50436;-74
2023/04/03 10:08:50;;;;;;;;;;;;;;;18.31;56.74;102542.75;2279160;78;51314;-73
2023/04/03 10:12:12;;;;;;;;;;;;;;;18.32;56.67;102540.94;2277875;78;51523;-74
2023/04/03 10:15:14;;;;;;;;;;;;;;;18.31;56.80;102539.23;2278907;78;50685;-73
2023/04/03 10:18:30;;;;;;;;;;;;;;;18.30;56.78;102534.86;2278940;78;50296;-74
2023/04/03 10:21:42;;;;;;;;;;;;;;;18.22;56.92;102524.32;2257976;78;51221;-74
2023/04/03 10:24:54;;;;;;;;;;;;;;;18.13;57.18;102516.23;2278865;77;50180;-74
2023/04/03 10:27:59;;;;;;;;;;;;;;;18.09;57.81;102528.22;2279172;78;50689;-74
2023/04/03 10:31:11;;;;;;;;;;;;;;;18.03;57.46;102519.73;2279074;78;51606;-74
2023/04/03 10:34:31;;;;;;;;;;;;;;;18.05;57.33;102520.42;2278888;77;22320;-74
2023/04/03 10:37:50;;;;;;;;;;;;;;;18.14;57.02;102520.13;2263938;78;51451;-74
2023/04/03 10:40:53;;;;;;;;;;;;;;;18.24;56.75;102513.48;2278932;77;50368;-74
2023/04/03 10:43:56;;;;;;;;;;;;;;;18.34;56.40;102510.34;2277180;78;50940;-73
2023/04/03 10:47:04;;;;;;;;;;;;;;;18.36;56.37;102515.05;2258412;78;50159;-76
2023/04/03 10:50:26;;;;;;;;;;;;;;;18.40;56.29;102510.28;2277157;78;22314;-76
2023/04/03 10:53:34;;;;;;;;;;;;;;;18.36;56.36;102516.39;2258133;78;52644;-75
2023/04/03 10:56:41;;;;;;;;;;;;;;;18.37;56.28;102510.06;2278938;78;53311;-74
2023/04/03 10:59:44;;;;;;;;;;;;;;;18.34;56.30;102507.66;2257967;78;51451;-73
2023/04/03 11:02:50;;;;;;;;;;;;;;;18.36;56.28;102502.15;2278531;77;52471;-74
2023/04/03 11:05:53;;;;;;;;;;;;;;;18.33;56.30;102497.06;2265487;78;50525;-75
2023/04/03 11:08:56;;;;;;;;;;;;;;;18.19;56.71;102496.96;2279056;78;51590;-74
2023/04/03 11:12:00;;;;;;;;;;;;;;;18.15;56.79;102496.86;2257156;78;51247;-73
2023/04/03 11:15:01;;;;;;;;;;;;;;;18.20;56.59;102498.14;2269477;78;51557;-73
2023/04/03 11:18:04;;;;;;;;;;;;;;;18.28;56.34;102488.09;2279087;78;50506;-72
2023/04/03 11:21:17;;;;;;;;;;;;;;;18.30;56.08;102487.47;2257779;78;51559;-73
2023/04/03 11:24:23;;;;;;;;;;;;;;;18.30;56.06;102490.65;2243612;78;51290;-72
2023/04/03 11:27:26;;;;;;;;;;;;;;;18.33;56.09;102491.20;2278527;78;51566;-72
2023/04/03 11:30:46;;;;;;;;;;;;;;;18.28;56.05;102486.75;2279061;78;50322;-72
2023/04/03 11:33:58;;;;;;;;;;;;;;;18.20;56.31;102473.19;2278742;78;50684;-73
2023/04/03 11:37:00;;;;;;;;;;;;;;;18.16;56.42;102478.45;2264433;78;51897;-74
2023/04/03 11:40:07;;;;;;;;;;;;;;;18.06;56.88;102475.27;2279030;78;50563;-74
2023/04/03 11:43:10;;;;;;;;;;;;;;;18.04;56.92;102476.38;2279040;78;51560;-73
2023/04/03 11:46:12;;;;;;;;;;;;;;;18.05;56.71;102484.27;2277378;78;50023;-74
2023/04/03 11:49:32;;;;;;;;;;;;;;;18.14;56.30;102476.42;2257745;78;51268;-72
2023/04/03 11:52:42;;;;;;;;;;;;;;;18.17;56.17;102472.97;2278964;78;51520;-73
2023/04/03 11:55:45;;;;;;;;;;;;;;;18.26;55.94;102481.55;2278812;78;50713;-74
2023/04/03 11:59:07;;;;;;;;;;;;;;;18.33;55.62;102480.98;2279139;78;51617;-74
2023/04/03 12:02:10;;;;;;;;;;;;;;;18.37;55.50;102475.22;2258078;78;52372;-74
2023/04/03 12:05:26;;;;;;;;;;;;;;;18.38;55.44;102468.87;2266029;78;51517;-72
2023/04/03 12:08:29;;;;;;;;;;;;;;;18.36;55.46;102473.52;2246069;78;51408;-73
2023/04/03 12:11:31;;;;;;;;;;;;;;;18.28;55.64;102463.97;2278986;78;51599;-73
2023/04/03 12:14:32;;;;;;;;;;;;;;;18.28;55.72;102478.71;2278645;77;51631;-73
2023/04/03 12:17:34;;;;;;;;;;;;;;;18.24;55.65;102478.15;2275518;77;51493;-73
2023/04/03 12:20:54;;;;;;;;;;;;;;;18.21;55.79;102473.06;2233845;79;51516;-73
2023/04/03 12:24:12;;;;;;;;;;;;;;;18.15;56.02;102466.05;2233723;79;51506;-74
2023/04/03 12:27:28;;;;;;;;;;;;;;;18.16;55.87;102470.41;2213381;79;51809;-74
2023/04/03 12:30:30;;;;;;;;;;;;;;;18.23;55.56;102456.84;2162360;80;49806;-73
2023/04/03 12:33:36;;;;;;;;;;;;;;;18.26;55.41;102461.91;2162236;82;51707;-73
2023/04/03 12:36:43;;;;;;;;;;;;;;;18.29;55.52;102458.98;2161945;81;51463;-73
2023/04/03 12:39:52;;;;;;;;;;;;;;;18.27;55.48;102453.75;2134732;82;51277;-74
2023/04/03 12:42:56;;;;;;;;;;;;;;;18.30;55.46;102455.81;2162461;82;51479;-74
2023/04/03 12:46:11;;;;;;;;;;;;;;;18.27;55.46;102452.91;2177333;79;51778;-73
2023/04/03 12:49:20;;;;;;;;;;;;;;;18.23;55.58;102451.48;2229500;79;50338;-73
2023/04/03 12:52:23;;;;;;;;;;;;;;;18.13;55.88;102445.24;2224778;78;52375;-74
2023/04/03 12:55:26;;;;;;;;;;;;;;;18.04;56.32;102447.76;2240799;79;51427;-73
2023/04/03 12:58:28;;;;;;;;;;;;;;;18.05;56.04;102443.24;2241065;79;50334;-73
2023/04/03 13:01:30;;;;;;;;;;;;;;;18.10;55.87;102437.48;2241194;79;51590;-74
2023/04/03 13:04:31;;;;;;;;;;;;;;;18.15;55.66;102443.28;2216102;79;50182;-74
2023/04/03 13:07:38;;;;;;;;;;;;;;;18.26;55.35;102440.02;2241778;79;50363;-73
2023/04/03 13:10:44;;;;;;;;;;;;;;;18.34;55.15;102442.00;2241953;79;51656;-74
2023/04/03 13:14:04;;;;;;;;;;;;;;;18.36;55.12;102431.97;2234730;79;50339;-74
2023/04/03 13:17:15;;;;;;;;;;;;;;;18.37;54.97;102438.17;2231137;78;23240;-73
2023/04/03 13:20:25;;;;;;;;;;;;;;;18.38;54.89;102441.23;2236070;78;51723;-74
2023/04/03 13:23:26;;;;;;;;;;;;;;;18.33;54.92;102440.29;2213419;79;51686;-74
2023/04/03 13:26:29;;;;;;;;;;;;;;;18.31;55.06;102432.88;2233738;79;51605;-74
2023/04/03 13:29:32;;;;;;;;;;;;;;;18.30;55.10;102433.87;2213417;79;49661;-74
2023/04/03 13:32:33;;;;;;;;;;;;;;;18.24;55.22;102429.08;2233208;79;50319;-74
2023/04/03 13:35:39;;;;;;;;;;;;;;;18.17;55.45;102427.92;2233739;79;50467;-74
2023/04/03 13:38:40;;;;;;;;;;;;;;;18.14;55.53;102423.69;2233830;79;51581;-74
2023/04/03 13:41:43;;;;;;;;;;;;;;;18.20;55.32;102420.95;2213271;79;51227;-73
2023/04/03 13:44:44;;;;;;;;;;;;;;;18.27;55.15;102426.95;2233432;79;51558;-75
2023/04/03 13:47:46;;;;;;;;;;;;;;;18.25;55.18;102419.54;2264199;78;51527;-73
2023/04/03 13:50:55;;;;;;;;;;;;;;;18.21;55.28;102420.82;2213318;79;51494;-74
2023/04/03 13:53:58;;;;;;;;;;;;;;;18.22;55.24;102420.32;2213051;79;51343;-74
2023/04/03 13:57:00;;;;;;;;;;;;;;;18.17;55.30;102418.55;2233835;79;51514;-74
2023/04/03 14:00:03;;;;;;;;;;;;;;;18.22;55.24;102417.64;2233891;79;51306;-74
2023/04/03 14:03:15;;;;;;;;;;;;;;;18.16;55.34;102419.51;2231364;79;51607;-74
2023/04/03 14:06:17;;;;;;;;;;;;;;;18.11;55.64;102413.72;2213909;79;51468;-73
2023/04/03 14:09:19;;;;;;;;;;;;;;;18.01;55.86;102414.55;2233758;79;51566;-73
2023/04/03 14:12:34;;;;;;;;;;;;;;;18.04;55.68;102412.94;2233832;79;51567;-74
2023/04/03 14:15:36;;;;;;;;;;;;;;;18.13;55.45;102411.75;2235420;78;51547;-73
2023/04/03 14:18:37;;;;;;;;;;;;;;;18.17;55.31;102411.84;2209886;79;52227;-73
2023/04/03 14:21:39;;;;;;;;;;;;;;;18.26;55.06;102411.88;2241784;78;51509;-73
2023/04/03 14:24:40;;;;;;;;;;;;;;;18.36;54.79;102409.19;2221147;79;51463;-73
2023/04/03 14:27:43;;;;;;;;;;;;;;;18.40;54.67;102414.64;2221557;79;50791;-74
2023/04/03 14:30:45;;;;;;;;;;;;;;;18.43;54.53;102409.00;2245755;78;51264;-73
2023/04/03 14:33:46;;;;;;;;;;;;;;;18.45;54.45;102408.88;2241686;79;50261;-73
2023/04/03 14:36:48;;;;;;;;;;;;;;;18.44;54.50;102414.70;2241636;78;51597;-74
2023/04/03 14:39:50;;;;;;;;;;;;;;;18.42;54.58;102408.66;2241888;79;50261;-74
2023/04/03 14:42:54;;;;;;;;;;;;;;;18.44;54.50;102411.17;2221211;79;51597;-73
2023/04/03 14:45:55;;;;;;;;;;;;;;;18.43;54.47;102405.48;2243011;78;22409;-74
2023/04/03 14:48:56;;;;;;;;;;;;;;;18.33;54.73;102401.44;2272886;78;51445;-74
2023/04/03 14:51:58;;;;;;;;;;;;;;;18.33;54.71;102405.45;2279046;78;50378;-74
2023/04/03 14:55:00;;;;;;;;;;;;;;;18.31;54.73;102406.08;2233081;78;51057;-74
2023/04/03 14:58:02;;;;;;;;;;;;;;;18.27;54.83;102402.00;2279144;78;51593;-75
2023/04/03 15:01:03;;;;;;;;;;;;;;;18.25;54.93;102401.28;2279190;77;51541;-74
2023/04/03 15:04:12;;;;;;;;;;;;;;;18.25;54.96;102401.28;2257619;78;51489;-74
2023/04/03 15:07:14;;;;;;;;;;;;;;;18.18;55.04;102396.11;2278946;78;50168;-74
2023/04/03 15:10:17;;;;;;;;;;;;;;;18.16;55.11;102405.65;2278942;78;51689;-74
2023/04/03 15:13:19;;;;;;;;;;;;;;;18.12;55.30;102395.34;2279072;78;51483;-75
2023/04/03 15:16:21;;;;;;;;;;;;;;;18.01;55.57;102401.66;2278913;77;50372;-74
2023/04/03 15:19:23;;;;;;;;;;;;;;;17.96;56.02;102402.06;2243095;78;51761;-75
2023/04/03 15:22:25;;;;;;;;;;;;;;;17.96;55.78;102397.20;2278930;78;50722;-75
2023/04/03 15:25:26;;;;;;;;;;;;;;;18.02;55.48;102397.48;2257543;78;50339;-74
2023/04/03 15:28:41;;;;;;;;;;;;;;;18.12;55.21;102394.84;2279065;78;51446;-73
2023/04/03 15:31:42;;;;;;;;;;;;;;;18.20;54.98;102395.48;2257806;78;53121;-74
2023/04/03 15:34:44;;;;;;;;;;;;;;;18.29;54.77;102396.02;2257678;78;51553;-73
2023/04/03 15:37:46;;;;;;;;;;;;;;;18.39;54.53;102395.50;2279083;78;51508;-75
2023/04/03 15:40:47;;;;;;;;;;;;;;;18.44;54.46;102401.80;2278897;78;51508;-74